Hannon Solo Sailor — FIIG — position and weather

sailwx.info

Track history (hours):
 
Tides and Currents Weather Stations Pressure Air Temp Water Temp Dewpoint Dewpoint Depression Visibility Wind Speed Wind Dir Waves Ship Positions

Hannon Solo Sailor

Last reported at 2017-Nov-05 23:29 UTC. Time now 2017-Nov-25 11:50 UTC.
Position N 49°43' W 001°44'.
Warning: this ship's position is 19 days out of date.

Length 12 m.

Type: Sailing vessel. MMSI: 228038800.

Date/timePositionNaut miles runAvg speedWind from/ knotsBaromVisibWave heightAir tempDewpointWater temp
2017-Nov-05 23:29N 49°43' W 001°44'511.0
2017-Nov-05 23:00N 49°43' W 001°36'510.0
2017-Nov-05 22:30N 49°44' W 001°29'40 7.8
2017-Nov-05 17:21N 49°45' W 000°26'410.4
2017-Nov-05 17:00N 49°45' W 000°21'510.5
2017-Nov-05 16:30N 49°45' W 000°13'510.2
2017-Nov-05 16:00N 49°45' W 000°05'510.3
2017-Nov-05 15:30N 49°46' E 000°03'5 4.3
2017-Nov-05 14:15N 49°42' E 000°08'2 8.3
2017-Nov-05 14:00N 49°40' E 000°06'4 7.4
2017-Nov-05 13:30N 49°37' E 000°05'4 7.2
2017-Nov-05 13:00N 49°33' E 000°04'4 7.3
2017-Nov-05 12:30N 49°30' E 000°01'1 1.2
2017-Nov-05 12:00N 49°30' E 000°02'2 4.3
2017-Nov-05 11:30N 49°29' E 000°05'1 1.3
2017-Nov-05 11:00N 49°29' E 000°06'0 0.0
2017-Nov-05 10:30N 49°29' E 000°06'0 0.0
2017-Nov-05 10:00N 49°29' E 000°06'0 0.0
2017-Nov-05 09:30N 49°29' E 000°06'0 0.7
2017-Nov-05 09:00N 49°29' E 000°06'0 0.7
2017-Nov-05 08:30N 49°29' E 000°07'1 1.6
2017-Nov-05 07:53N 49°29' E 000°08'0 0.0
2017-Nov-05 07:23N 49°29' E 000°08'0 0.0
2017-Nov-05 06:47N 49°29' E 000°08'0 0.0
2017-Nov-05 06:17N 49°29' E 000°08'0 0.0
2017-Nov-05 05:59N 49°29' E 000°08'0 0.0
2017-Nov-05 05:29N 49°29' E 000°08'0 0.0
2017-Nov-05 04:59N 49°29' E 000°08'0 0.0
2017-Nov-05 04:29N 49°29' E 000°08'0 0.0
2017-Nov-05 03:11N 49°29' E 000°08'0 0.0
2017-Nov-05 02:59N 49°29' E 000°08'0 0.0
2017-Nov-05 02:23N 49°29' E 000°08'0 0.0
2017-Nov-05 01:59N 49°29' E 000°08'0 0.0
2017-Nov-05 01:29N 49°29' E 000°08'0 0.0
2017-Nov-05 00:53N 49°29' E 000°08'0 0.0
2017-Nov-05 00:29N 49°29' E 000°08'0 0.0
2017-Nov-04 23:59N 49°29' E 000°08'0 0.0
2017-Nov-04 23:29N 49°29' E 000°08'0 0.0
2017-Nov-04 22:59N 49°29' E 000°08'0 0.0
2017-Nov-04 22:29N 49°29' E 000°08'0 0.0
2017-Nov-04 21:59N 49°29' E 000°08'0 0.0
2017-Nov-04 21:29N 49°29' E 000°08'0 0.0
2017-Nov-04 20:59N 49°29' E 000°08'0 0.0
2017-Nov-04 20:23N 49°29' E 000°08'0 0.0
2017-Nov-04 19:59N 49°29' E 000°08'0 0.0
2017-Nov-04 19:29N 49°29' E 000°08'0 0.0
2017-Nov-04 18:59N 49°29' E 000°08'0 0.0
2017-Nov-04 18:28N 49°29' E 000°08'0 0.0
2017-Nov-04 17:58N 49°29' E 000°08'0 0.0
2017-Nov-04 17:25N 49°29' E 000°08'0 0.0
2017-Nov-04 16:58N 49°29' E 000°08'0 0.0
2017-Nov-04 16:28N 49°29' E 000°08'0 0.0
2017-Nov-04 15:58N 49°29' E 000°08'0 0.0
2017-Nov-04 15:28N 49°29' E 000°08'0 0.0
2017-Nov-04 14:52N 49°29' E 000°08'0 0.0
2017-Nov-04 14:28N 49°29' E 000°08'0 0.0
2017-Nov-04 13:58N 49°29' E 000°08'0 0.0
2017-Nov-04 13:22N 49°29' E 000°08'0 0.0
2017-Nov-04 12:55N 49°29' E 000°08'0 0.0
2017-Nov-04 12:28N 49°29' E 000°08'0 0.0
2017-Nov-04 11:58N 49°29' E 000°08'0 0.0
2017-Nov-04 11:28N 49°29' E 000°08'0 0.0
2017-Nov-04 10:52N 49°29' E 000°08'0 0.0
2017-Nov-04 10:28N 49°29' E 000°08'0 0.0
2017-Nov-04 09:58N 49°29' E 000°08'0 0.0
2017-Nov-04 09:28N 49°29' E 000°08'0 0.0
2017-Nov-04 08:58N 49°29' E 000°08'0 0.0
2017-Nov-04 08:28N 49°29' E 000°08'0 0.0
2017-Nov-04 07:58N 49°29' E 000°08'0 0.0
2017-Nov-04 07:22N 49°29' E 000°08'0 0.0
2017-Nov-04 06:58N 49°29' E 000°08'0 0.0
2017-Nov-04 06:28N 49°29' E 000°08'0 0.0
2017-Nov-04 05:58N 49°29' E 000°08'0 0.0
2017-Nov-04 05:28N 49°29' E 000°08'0 0.0
2017-Nov-04 04:46N 49°29' E 000°08'0 0.0
2017-Nov-04 04:28N 49°29' E 000°08'0 0.0
2017-Nov-04 03:58N 49°29' E 000°08'0 0.0
2017-Nov-04 03:22N 49°29' E 000°08'0 0.0
2017-Nov-04 02:58N 49°29' E 000°08'0 0.0
2017-Nov-04 02:28N 49°29' E 000°08'0 0.0
2017-Nov-04 01:58N 49°29' E 000°08'0 0.0
2017-Nov-04 01:28N 49°29' E 000°08'0 0.0
2017-Nov-04 00:49N 49°29' E 000°08'0 0.0
2017-Nov-04 00:25N 49°29' E 000°08'0 0.0
2017-Nov-03 23:58N 49°29' E 000°08'0 0.0
2017-Nov-03 23:28N 49°29' E 000°08'0 0.0
2017-Nov-03 22:58N 49°29' E 000°08'0 0.0
2017-Nov-03 22:28N 49°29' E 000°08'0 0.0
2017-Nov-03 21:52N 49°29' E 000°08'0 0.0
2017-Nov-03 21:28N 49°29' E 000°08'0 0.0
2017-Nov-03 20:58N 49°29' E 000°08'0 0.0
2017-Nov-03 20:28N 49°29' E 000°08'0 0.0
2017-Nov-03 19:58N 49°29' E 000°08'0 0.0
2017-Nov-03 19:28N 49°29' E 000°08'0 0.0
2017-Nov-03 18:58N 49°29' E 000°08'0 0.0
2017-Nov-03 18:28N 49°29' E 000°08'0 0.0
2017-Nov-03 17:58N 49°29' E 000°08'0 0.0
2017-Nov-03 17:22N 49°29' E 000°08'0 0.0
2017-Nov-03 16:58N 49°29' E 000°08'0 0.0
2017-Nov-03 16:28N 49°29' E 000°08'0 0.0
2017-Nov-03 15:58N 49°29' E 000°08'0 0.0
2017-Nov-03 15:25N 49°29' E 000°08'0 0.0
2017-Nov-03 14:52N 49°29' E 000°08'0 0.0
2017-Nov-03 14:28N 49°29' E 000°08'0 0.0
2017-Nov-03 13:58N 49°29' E 000°08'0 0.0
2017-Nov-03 13:28N 49°29' E 000°08'0 0.0
2017-Nov-03 12:58N 49°29' E 000°08'0 0.0
2017-Nov-03 12:28N 49°29' E 000°08'0 0.0
2017-Nov-03 11:46N 49°29' E 000°08'0 0.0
2017-Nov-03 11:28N 49°29' E 000°08'0 0.0
2017-Nov-03 10:58N 49°29' E 000°08'0 0.0
2017-Nov-03 10:28N 49°29' E 000°08'0 0.0
2017-Nov-03 09:58N 49°29' E 000°08'0 0.0
2017-Nov-03 09:28N 49°29' E 000°08'0 0.0
2017-Nov-03 08:58N 49°29' E 000°08'0 0.0
2017-Nov-03 08:25N 49°29' E 000°08'0 0.0
2017-Nov-03 07:58N 49°29' E 000°08'0 0.0
2017-Nov-03 07:28N 49°29' E 000°08'0 0.0
2017-Nov-03 06:58N 49°29' E 000°08'0 0.0
2017-Nov-03 06:28N 49°29' E 000°08'0 0.0
2017-Nov-03 05:58N 49°29' E 000°08'0 0.0
2017-Nov-03 05:28N 49°29' E 000°08'0 0.0
2017-Nov-03 04:58N 49°29' E 000°08'0 0.0
2017-Nov-03 04:28N 49°29' E 000°08'0 0.0
2017-Nov-03 03:58N 49°29' E 000°08'0 0.0
2017-Nov-03 03:28N 49°29' E 000°08'0 0.0
2017-Nov-03 02:58N 49°29' E 000°08'0 0.0
2017-Nov-03 02:28N 49°29' E 000°08'0 0.0
2017-Nov-03 01:58N 49°29' E 000°08'0 0.0
2017-Nov-03 01:25N 49°29' E 000°08'0 0.0
2017-Nov-03 00:58N 49°29' E 000°08'0 0.0
2017-Nov-03 00:28N 49°29' E 000°08'0 0.0
2017-Nov-02 23:58N 49°29' E 000°08'0 0.0
2017-Nov-02 23:28N 49°29' E 000°08'0 0.0
2017-Nov-02 22:58N 49°29' E 000°08'0 0.0
2017-Nov-02 22:28N 49°29' E 000°08'0 0.0
2017-Nov-02 21:58N 49°29' E 000°08'0 0.0
2017-Nov-02 21:28N 49°29' E 000°08'0 0.0
2017-Nov-02 20:58N 49°29' E 000°08'0 0.0
2017-Nov-02 20:28N 49°29' E 000°08'0 0.0
2017-Nov-02 19:58N 49°29' E 000°08'0 0.0
2017-Nov-02 19:28N 49°29' E 000°08'0 0.0
2017-Nov-02 18:58N 49°29' E 000°08'0 0.0
2017-Nov-02 18:25N 49°29' E 000°08'0 0.0
2017-Nov-02 15:30N 49°29' E 000°08'0 0.1
2017-Nov-02 15:00N 49°29' E 000°08'0 0.0
2017-Nov-02 14:30N 49°29' E 000°08'0 0.0
2017-Nov-02 14:00N 49°29' E 000°08'0 0.0
2017-Nov-02 13:30N 49°29' E 000°08'0 0.1
2017-Nov-02 12:59N 49°29' E 000°08'0 0.0
2017-Nov-02 12:20N 49°29' E 000°08'0 0.0
2017-Nov-02 11:56N 49°29' E 000°08'0 0.0
2017-Nov-02 11:26N 49°29' E 000°08'0 0.0
2017-Nov-02 10:56N 49°29' E 000°08'0 0.0
2017-Nov-02 10:29N 49°29' E 000°08'0 0.0
2017-Nov-02 09:56N 49°29' E 000°08'0 0.0
2017-Nov-02 09:26N 49°29' E 000°08'0 0.0
2017-Nov-02 08:59N 49°29' E 000°08'0 0.0
2017-Nov-02 08:29N 49°29' E 000°08'0 0.0
2017-Nov-02 07:50N 49°29' E 000°08'0 0.0
2017-Nov-02 07:26N 49°29' E 000°08'0 0.0
2017-Nov-02 06:56N 49°29' E 000°08'0 0.0
2017-Nov-02 06:23N 49°29' E 000°08'0 0.0
2017-Nov-02 05:59N 49°29' E 000°08'0 0.0
2017-Nov-02 05:23N 49°29' E 000°08'0 0.0
2017-Nov-02 04:56N 49°29' E 000°08'0 0.0
2017-Nov-02 04:29N 49°29' E 000°08'0 0.0
2017-Nov-02 03:50N 49°29' E 000°08'0 0.0
2017-Nov-02 03:26N 49°29' E 000°08'0 0.0
2017-Nov-02 02:59N 49°29' E 000°08'0 0.0
2017-Nov-02 02:26N 49°29' E 000°08'0 0.0
2017-Nov-02 01:59N 49°29' E 000°08'0 0.0
2017-Nov-02 01:26N 49°29' E 000°08'0 0.0
2017-Nov-02 00:59N 49°29' E 000°08'0 0.0
2017-Nov-02 00:29N 49°29' E 000°08'0 0.0
2017-Nov-01 23:56N 49°29' E 000°08'0 0.0
2017-Nov-01 23:26N 49°29' E 000°08'0 0.0
2017-Nov-01 22:59N 49°29' E 000°08'0 0.0
2017-Nov-01 22:29N 49°29' E 000°08'0 0.0
2017-Nov-01 21:53N 49°29' E 000°08'0 0.0
2017-Nov-01 21:29N 49°29' E 000°08'0 0.0
2017-Nov-01 20:56N 49°29' E 000°08'0 0.0
2017-Nov-01 20:26N 49°29' E 000°08'0 0.0
2017-Nov-01 19:56N 49°29' E 000°08'0 0.0
2017-Nov-01 19:23N 49°29' E 000°08'0 0.0
2017-Nov-01 18:59N 49°29' E 000°08'0 0.0
2017-Nov-01 18:26N 49°29' E 000°08'0 0.0
2017-Nov-01 01:56N 49°29' E 000°08'0 0.0
2017-Nov-01 01:26N 49°29' E 000°08'0 0.0
2017-Nov-01 00:56N 49°29' E 000°08'0 0.0
2017-Nov-01 00:26N 49°29' E 000°08'0 0.0
2017-Oct-31 23:56N 49°29' E 000°08'0 0.0
2017-Oct-31 23:26N 49°29' E 000°08'0 0.0
2017-Oct-31 22:56N 49°29' E 000°08'0 0.0
2017-Oct-31 22:29N 49°29' E 000°08'0 0.0
2017-Oct-31 21:59N 49°29' E 000°08'0 0.0
2017-Oct-31 21:26N 49°29' E 000°08'0 0.0
2017-Oct-31 20:56N 49°29' E 000°08'0 0.0
2017-Oct-31 20:26N 49°29' E 000°08'0 0.0
2017-Oct-31 19:56N 49°29' E 000°08'0 0.0
2017-Oct-31 19:26N 49°29' E 000°08'0 0.0
2017-Oct-31 18:59N 49°29' E 000°08'0 0.0
2017-Oct-31 18:29N 49°29' E 000°08'0 0.0
2017-Oct-31 17:56N 49°29' E 000°08'0 0.0
2017-Oct-31 17:29N 49°29' E 000°08'0 0.0
2017-Oct-31 16:59N 49°29' E 000°08'0 0.0
2017-Oct-31 16:26N 49°29' E 000°08'0 0.0
2017-Oct-31 15:59N 49°29' E 000°08'0 0.0
2017-Oct-31 15:26N 49°29' E 000°08'0 0.0
2017-Oct-31 14:56N 49°29' E 000°08'0 0.0
2017-Oct-31 14:26N 49°29' E 000°08'0 0.0
2017-Oct-31 13:59N 49°29' E 000°08'0 0.0
2017-Oct-31 13:26N 49°29' E 000°08'0 0.0
2017-Oct-31 12:56N 49°29' E 000°08'0 0.0
2017-Oct-31 12:26N 49°29' E 000°08'0 0.0
2017-Oct-31 11:59N 49°29' E 000°08'0 0.0
2017-Oct-31 11:26N 49°29' E 000°08'0 0.0
2017-Oct-31 10:59N 49°29' E 000°08'0 0.0
2017-Oct-31 10:26N 49°29' E 000°08'0 0.0
2017-Oct-31 09:56N 49°29' E 000°08'0 0.0
2017-Oct-31 09:20N 49°29' E 000°08'0 0.0
2017-Oct-31 08:56N 49°29' E 000°08'0 0.0
2017-Oct-31 08:26N 49°29' E 000°08'0 0.0
2017-Oct-31 07:56N 49°29' E 000°08'0 0.0
2017-Oct-31 07:26N 49°29' E 000°08'0 0.0
2017-Oct-31 06:56N 49°29' E 000°08'0 0.0
2017-Oct-31 06:26N 49°29' E 000°08'0 0.0
2017-Oct-31 05:56N 49°29' E 000°08'0 0.0
2017-Oct-31 05:29N 49°29' E 000°08'0 0.0
2017-Oct-31 04:59N 49°29' E 000°08'0 0.0
2017-Oct-31 04:26N 49°29' E 000°08'0 0.0
2017-Oct-31 03:59N 49°29' E 000°08'0 0.0
2017-Oct-31 03:26N 49°29' E 000°08'0 0.0
2017-Oct-31 02:59N 49°29' E 000°08'0 0.0
2017-Oct-31 02:29N 49°29' E 000°08'0 0.0
2017-Oct-31 01:59N 49°29' E 000°08'0 0.0
2017-Oct-31 01:26N 49°29' E 000°08'0 0.0
2017-Oct-31 00:59N 49°29' E 000°08'0 0.0
2017-Oct-31 00:26N 49°29' E 000°08'0 0.0
2017-Oct-30 23:59N 49°29' E 000°08'0 0.0
2017-Oct-30 23:26N 49°29' E 000°08'0 0.0
2017-Oct-30 22:56N 49°29' E 000°08'0 0.0
2017-Oct-30 22:29N 49°29' E 000°08'0 0.0
2017-Oct-30 21:56N 49°29' E 000°08'0 0.0
2017-Oct-30 21:26N 49°29' E 000°08'0 0.0
2017-Oct-30 20:59N 49°29' E 000°08'0 0.0
2017-Oct-30 20:26N 49°29' E 000°08'0 0.0
2017-Oct-30 19:56N 49°29' E 000°08'0 0.0
2017-Oct-30 19:26N 49°29' E 000°08'0 0.0
2017-Oct-30 18:56N 49°29' E 000°08'0 0.0
2017-Oct-30 16:57N 49°29' E 000°08'0 0.0
2017-Oct-30 16:30N 49°29' E 000°08'0 0.0
2017-Oct-30 15:57N 49°29' E 000°08'0 0.0
2017-Oct-30 15:30N 49°29' E 000°08'0 0.0
2017-Oct-30 15:00N 49°29' E 000°08'0 0.0
2017-Oct-30 14:27N 49°29' E 000°08'0 0.0
2017-Oct-30 13:30N 49°29' E 000°08'0 0.0
2017-Oct-30 13:00N 49°29' E 000°08'0 0.0
2017-Oct-30 12:30N 49°29' E 000°08'0 0.0
2017-Oct-30 12:00N 49°29' E 000°08'0 0.0
2017-Oct-30 11:30N 49°29' E 000°08'0 0.0
2017-Oct-30 10:57N 49°29' E 000°08'0 0.0
2017-Oct-29 17:16N 49°29' E 000°08'0 0.0
2017-Oct-29 16:58N 49°29' E 000°08'0 0.0
2017-Oct-29 16:28N 49°29' E 000°08'0 0.0
2017-Oct-29 15:58N 49°29' E 000°08'  
2017-Oct-27 11:34N 49°29' E 000°08'0 0.0
2017-Oct-27 11:28N 49°29' E 000°08'0 0.7
2017-Oct-27 11:01N 49°29' E 000°07'0 0.8
2017-Oct-27 10:28N 49°29' E 000°07'0 1.0
2017-Oct-27 10:00N 49°29' E 000°06'2 4.6
2017-Oct-27 09:30N 49°29' E 000°03'2 4.8
2017-Oct-27 09:00N 49°28' W 000°00'3 6.2
2017-Oct-27 08:30N 49°27' W 000°05'3 5.5
2017-Oct-27 08:00N 49°26' W 000°09'1 2.4
2017-Oct-27 07:30N 49°26' W 000°07'1 1.5
2017-Oct-27 06:59N 49°26' W 000°07'3 5.4
2017-Oct-27 06:30N 49°24' W 000°09'3 6.4
2017-Oct-27 06:00N 49°21' W 000°12'3 5.5
2017-Oct-27 05:29N 49°19' W 000°15'2 3.9
2017-Oct-27 05:00N 49°17' W 000°15'  
Track history (hours):
 
Tides and Currents Weather Stations Pressure Air Temp Water Temp Dewpoint Dewpoint Depression Visibility Wind Speed Wind Dir Waves Ship Positions

Hannon Solo Sailor

Last reported at 2017-Nov-05 23:29 UTC. Time now 2017-Nov-25 11:50 UTC.
Position N 49°43' W 001°44'.
Warning: this ship's position is 19 days out of date.

Length 12 m.

Type: Sailing vessel. MMSI: 228038800.

Date/timePositionNaut miles runAvg speedWind from/ knotsBaromVisibWave heightAir tempDewpointWater temp
2017-Nov-05 23:29N 49°43' W 001°44'511.0
2017-Nov-05 23:00N 49°43' W 001°36'510.0
2017-Nov-05 22:30N 49°44' W 001°29'40 7.8
2017-Nov-05 17:21N 49°45' W 000°26'410.4
2017-Nov-05 17:00N 49°45' W 000°21'510.5
2017-Nov-05 16:30N 49°45' W 000°13'510.2
2017-Nov-05 16:00N 49°45' W 000°05'510.3
2017-Nov-05 15:30N 49°46' E 000°03'5 4.3
2017-Nov-05 14:15N 49°42' E 000°08'2 8.3
2017-Nov-05 14:00N 49°40' E 000°06'4 7.4
2017-Nov-05 13:30N 49°37' E 000°05'4 7.2
2017-Nov-05 13:00N 49°33' E 000°04'4 7.3
2017-Nov-05 12:30N 49°30' E 000°01'1 1.2
2017-Nov-05 12:00N 49°30' E 000°02'2 4.3
2017-Nov-05 11:30N 49°29' E 000°05'1 1.3
2017-Nov-05 11:00N 49°29' E 000°06'0 0.0
2017-Nov-05 10:30N 49°29' E 000°06'0 0.0
2017-Nov-05 10:00N 49°29' E 000°06'0 0.0
2017-Nov-05 09:30N 49°29' E 000°06'0 0.7
2017-Nov-05 09:00N 49°29' E 000°06'0 0.7
2017-Nov-05 08:30N 49°29' E 000°07'1 1.6
2017-Nov-05 07:53N 49°29' E 000°08'0 0.0
2017-Nov-05 07:23N 49°29' E 000°08'0 0.0
2017-Nov-05 06:47N 49°29' E 000°08'0 0.0
2017-Nov-05 06:17N 49°29' E 000°08'0 0.0
2017-Nov-05 05:59N 49°29' E 000°08'0 0.0
2017-Nov-05 05:29N 49°29' E 000°08'0 0.0
2017-Nov-05 04:59N 49°29' E 000°08'0 0.0
2017-Nov-05 04:29N 49°29' E 000°08'0 0.0
2017-Nov-05 03:11N 49°29' E 000°08'0 0.0
2017-Nov-05 02:59N 49°29' E 000°08'0 0.0
2017-Nov-05 02:23N 49°29' E 000°08'0 0.0
2017-Nov-05 01:59N 49°29' E 000°08'0 0.0
2017-Nov-05 01:29N 49°29' E 000°08'0 0.0
2017-Nov-05 00:53N 49°29' E 000°08'0 0.0
2017-Nov-05 00:29N 49°29' E 000°08'0 0.0
2017-Nov-04 23:59N 49°29' E 000°08'0 0.0
2017-Nov-04 23:29N 49°29' E 000°08'0 0.0
2017-Nov-04 22:59N 49°29' E 000°08'0 0.0
2017-Nov-04 22:29N 49°29' E 000°08'0 0.0
2017-Nov-04 21:59N 49°29' E 000°08'0 0.0
2017-Nov-04 21:29N 49°29' E 000°08'0 0.0
2017-Nov-04 20:59N 49°29' E 000°08'0 0.0
2017-Nov-04 20:23N 49°29' E 000°08'0 0.0
2017-Nov-04 19:59N 49°29' E 000°08'0 0.0
2017-Nov-04 19:29N 49°29' E 000°08'0 0.0
2017-Nov-04 18:59N 49°29' E 000°08'0 0.0
2017-Nov-04 18:28N 49°29' E 000°08'0 0.0
2017-Nov-04 17:58N 49°29' E 000°08'0 0.0
2017-Nov-04 17:25N 49°29' E 000°08'0 0.0
2017-Nov-04 16:58N 49°29' E 000°08'0 0.0
2017-Nov-04 16:28N 49°29' E 000°08'0 0.0
2017-Nov-04 15:58N 49°29' E 000°08'0 0.0
2017-Nov-04 15:28N 49°29' E 000°08'0 0.0
2017-Nov-04 14:52N 49°29' E 000°08'0 0.0
2017-Nov-04 14:28N 49°29' E 000°08'0 0.0
2017-Nov-04 13:58N 49°29' E 000°08'0 0.0
2017-Nov-04 13:22N 49°29' E 000°08'0 0.0
2017-Nov-04 12:55N 49°29' E 000°08'0 0.0
2017-Nov-04 12:28N 49°29' E 000°08'0 0.0
2017-Nov-04 11:58N 49°29' E 000°08'0 0.0
2017-Nov-04 11:28N 49°29' E 000°08'0 0.0
2017-Nov-04 10:52N 49°29' E 000°08'0 0.0
2017-Nov-04 10:28N 49°29' E 000°08'0 0.0
2017-Nov-04 09:58N 49°29' E 000°08'0 0.0
2017-Nov-04 09:28N 49°29' E 000°08'0 0.0
2017-Nov-04 08:58N 49°29' E 000°08'0 0.0
2017-Nov-04 08:28N 49°29' E 000°08'0 0.0
2017-Nov-04 07:58N 49°29' E 000°08'0 0.0
2017-Nov-04 07:22N 49°29' E 000°08'0 0.0
2017-Nov-04 06:58N 49°29' E 000°08'0 0.0
2017-Nov-04 06:28N 49°29' E 000°08'0 0.0
2017-Nov-04 05:58N 49°29' E 000°08'0 0.0
2017-Nov-04 05:28N 49°29' E 000°08'0 0.0
2017-Nov-04 04:46N 49°29' E 000°08'0 0.0
2017-Nov-04 04:28N 49°29' E 000°08'0 0.0
2017-Nov-04 03:58N 49°29' E 000°08'0 0.0
2017-Nov-04 03:22N 49°29' E 000°08'0 0.0
2017-Nov-04 02:58N 49°29' E 000°08'0 0.0
2017-Nov-04 02:28N 49°29' E 000°08'0 0.0
2017-Nov-04 01:58N 49°29' E 000°08'0 0.0
2017-Nov-04 01:28N 49°29' E 000°08'0 0.0
2017-Nov-04 00:49N 49°29' E 000°08'0 0.0
2017-Nov-04 00:25N 49°29' E 000°08'0 0.0
2017-Nov-03 23:58N 49°29' E 000°08'0 0.0
2017-Nov-03 23:28N 49°29' E 000°08'0 0.0
2017-Nov-03 22:58N 49°29' E 000°08'0 0.0
2017-Nov-03 22:28N 49°29' E 000°08'0 0.0
2017-Nov-03 21:52N 49°29' E 000°08'0 0.0
2017-Nov-03 21:28N 49°29' E 000°08'0 0.0
2017-Nov-03 20:58N 49°29' E 000°08'0 0.0
2017-Nov-03 20:28N 49°29' E 000°08'0 0.0
2017-Nov-03 19:58N 49°29' E 000°08'0 0.0
2017-Nov-03 19:28N 49°29' E 000°08'0 0.0
2017-Nov-03 18:58N 49°29' E 000°08'0 0.0
2017-Nov-03 18:28N 49°29' E 000°08'0 0.0
2017-Nov-03 17:58N 49°29' E 000°08'0 0.0
2017-Nov-03 17:22N 49°29' E 000°08'0 0.0
2017-Nov-03 16:58N 49°29' E 000°08'0 0.0
2017-Nov-03 16:28N 49°29' E 000°08'0 0.0
2017-Nov-03 15:58N 49°29' E 000°08'0 0.0
2017-Nov-03 15:25N 49°29' E 000°08'0 0.0
2017-Nov-03 14:52N 49°29' E 000°08'0 0.0
2017-Nov-03 14:28N 49°29' E 000°08'0 0.0
2017-Nov-03 13:58N 49°29' E 000°08'0 0.0
2017-Nov-03 13:28N 49°29' E 000°08'0 0.0
2017-Nov-03 12:58N 49°29' E 000°08'0 0.0
2017-Nov-03 12:28N 49°29' E 000°08'0 0.0
2017-Nov-03 11:46N 49°29' E 000°08'0 0.0
2017-Nov-03 11:28N 49°29' E 000°08'0 0.0
2017-Nov-03 10:58N 49°29' E 000°08'0 0.0
2017-Nov-03 10:28N 49°29' E 000°08'0 0.0
2017-Nov-03 09:58N 49°29' E 000°08'0 0.0
2017-Nov-03 09:28N 49°29' E 000°08'0 0.0
2017-Nov-03 08:58N 49°29' E 000°08'0 0.0
2017-Nov-03 08:25N 49°29' E 000°08'0 0.0
2017-Nov-03 07:58N 49°29' E 000°08'0 0.0
2017-Nov-03 07:28N 49°29' E 000°08'0 0.0
2017-Nov-03 06:58N 49°29' E 000°08'0 0.0
2017-Nov-03 06:28N 49°29' E 000°08'0 0.0
2017-Nov-03 05:58N 49°29' E 000°08'0 0.0
2017-Nov-03 05:28N 49°29' E 000°08'0 0.0
2017-Nov-03 04:58N 49°29' E 000°08'0 0.0
2017-Nov-03 04:28N 49°29' E 000°08'0 0.0
2017-Nov-03 03:58N 49°29' E 000°08'0 0.0
2017-Nov-03 03:28N 49°29' E 000°08'0 0.0
2017-Nov-03 02:58N 49°29' E 000°08'0 0.0
2017-Nov-03 02:28N 49°29' E 000°08'0 0.0
2017-Nov-03 01:58N 49°29' E 000°08'0 0.0
2017-Nov-03 01:25N 49°29' E 000°08'0 0.0
2017-Nov-03 00:58N 49°29' E 000°08'0 0.0
2017-Nov-03 00:28N 49°29' E 000°08'0 0.0
2017-Nov-02 23:58N 49°29' E 000°08'0 0.0
2017-Nov-02 23:28N 49°29' E 000°08'0 0.0
2017-Nov-02 22:58N 49°29' E 000°08'0 0.0
2017-Nov-02 22:28N 49°29' E 000°08'0 0.0
2017-Nov-02 21:58N 49°29' E 000°08'0 0.0
2017-Nov-02 21:28N 49°29' E 000°08'0 0.0
2017-Nov-02 20:58N 49°29' E 000°08'0 0.0
2017-Nov-02 20:28N 49°29' E 000°08'0 0.0
2017-Nov-02 19:58N 49°29' E 000°08'0 0.0
2017-Nov-02 19:28N 49°29' E 000°08'0 0.0
2017-Nov-02 18:58N 49°29' E 000°08'0 0.0
2017-Nov-02 18:25N 49°29' E 000°08'0 0.0
2017-Nov-02 15:30N 49°29' E 000°08'0 0.1
2017-Nov-02 15:00N 49°29' E 000°08'0 0.0
2017-Nov-02 14:30N 49°29' E 000°08'0 0.0
2017-Nov-02 14:00N 49°29' E 000°08'0 0.0
2017-Nov-02 13:30N 49°29' E 000°08'0 0.1
2017-Nov-02 12:59N 49°29' E 000°08'0 0.0
2017-Nov-02 12:20N 49°29' E 000°08'0 0.0
2017-Nov-02 11:56N 49°29' E 000°08'0 0.0
2017-Nov-02 11:26N 49°29' E 000°08'0 0.0
2017-Nov-02 10:56N 49°29' E 000°08'0 0.0
2017-Nov-02 10:29N 49°29' E 000°08'0 0.0
2017-Nov-02 09:56N 49°29' E 000°08'0 0.0
2017-Nov-02 09:26N 49°29' E 000°08'0 0.0
2017-Nov-02 08:59N 49°29' E 000°08'0 0.0
2017-Nov-02 08:29N 49°29' E 000°08'0 0.0
2017-Nov-02 07:50N 49°29' E 000°08'0 0.0
2017-Nov-02 07:26N 49°29' E 000°08'0 0.0
2017-Nov-02 06:56N 49°29' E 000°08'0 0.0
2017-Nov-02 06:23N 49°29' E 000°08'0 0.0
2017-Nov-02 05:59N 49°29' E 000°08'0 0.0
2017-Nov-02 05:23N 49°29' E 000°08'0 0.0
2017-Nov-02 04:56N 49°29' E 000°08'0 0.0
2017-Nov-02 04:29N 49°29' E 000°08'0 0.0
2017-Nov-02 03:50N 49°29' E 000°08'0 0.0
2017-Nov-02 03:26N 49°29' E 000°08'0 0.0
2017-Nov-02 02:59N 49°29' E 000°08'0 0.0
2017-Nov-02 02:26N 49°29' E 000°08'0 0.0
2017-Nov-02 01:59N 49°29' E 000°08'0 0.0
2017-Nov-02 01:26N 49°29' E 000°08'0 0.0
2017-Nov-02 00:59N 49°29' E 000°08'0 0.0
2017-Nov-02 00:29N 49°29' E 000°08'0 0.0
2017-Nov-01 23:56N 49°29' E 000°08'0 0.0
2017-Nov-01 23:26N 49°29' E 000°08'0 0.0
2017-Nov-01 22:59N 49°29' E 000°08'0 0.0
2017-Nov-01 22:29N 49°29' E 000°08'0 0.0
2017-Nov-01 21:53N 49°29' E 000°08'0 0.0
2017-Nov-01 21:29N 49°29' E 000°08'0 0.0
2017-Nov-01 20:56N 49°29' E 000°08'0 0.0
2017-Nov-01 20:26N 49°29' E 000°08'0 0.0
2017-Nov-01 19:56N 49°29' E 000°08'0 0.0
2017-Nov-01 19:23N 49°29' E 000°08'0 0.0
2017-Nov-01 18:59N 49°29' E 000°08'0 0.0
2017-Nov-01 18:26N 49°29' E 000°08'0 0.0
2017-Nov-01 01:56N 49°29' E 000°08'0 0.0
2017-Nov-01 01:26N 49°29' E 000°08'0 0.0
2017-Nov-01 00:56N 49°29' E 000°08'0 0.0
2017-Nov-01 00:26N 49°29' E 000°08'0 0.0
2017-Oct-31 23:56N 49°29' E 000°08'0 0.0
2017-Oct-31 23:26N 49°29' E 000°08'0 0.0
2017-Oct-31 22:56N 49°29' E 000°08'0 0.0
2017-Oct-31 22:29N 49°29' E 000°08'0 0.0
2017-Oct-31 21:59N 49°29' E 000°08'0 0.0
2017-Oct-31 21:26N 49°29' E 000°08'0 0.0
2017-Oct-31 20:56N 49°29' E 000°08'0 0.0
2017-Oct-31 20:26N 49°29' E 000°08'0 0.0
2017-Oct-31 19:56N 49°29' E 000°08'0 0.0
2017-Oct-31 19:26N 49°29' E 000°08'0 0.0
2017-Oct-31 18:59N 49°29' E 000°08'0 0.0
2017-Oct-31 18:29N 49°29' E 000°08'0 0.0
2017-Oct-31 17:56N 49°29' E 000°08'0 0.0
2017-Oct-31 17:29N 49°29' E 000°08'0 0.0
2017-Oct-31 16:59N 49°29' E 000°08'0 0.0
2017-Oct-31 16:26N 49°29' E 000°08'0 0.0
2017-Oct-31 15:59N 49°29' E 000°08'0 0.0
2017-Oct-31 15:26N 49°29' E 000°08'0 0.0
2017-Oct-31 14:56N 49°29' E 000°08'0 0.0
2017-Oct-31 14:26N 49°29' E 000°08'0 0.0
2017-Oct-31 13:59N 49°29' E 000°08'0 0.0
2017-Oct-31 13:26N 49°29' E 000°08'0 0.0
2017-Oct-31 12:56N 49°29' E 000°08'0 0.0
2017-Oct-31 12:26N 49°29' E 000°08'0 0.0
2017-Oct-31 11:59N 49°29' E 000°08'0 0.0
2017-Oct-31 11:26N 49°29' E 000°08'0 0.0
2017-Oct-31 10:59N 49°29' E 000°08'0 0.0
2017-Oct-31 10:26N 49°29' E 000°08'0 0.0
2017-Oct-31 09:56N 49°29' E 000°08'0 0.0
2017-Oct-31 09:20N 49°29' E 000°08'0 0.0
2017-Oct-31 08:56N 49°29' E 000°08'0 0.0
2017-Oct-31 08:26N 49°29' E 000°08'0 0.0
2017-Oct-31 07:56N 49°29' E 000°08'0 0.0
2017-Oct-31 07:26N 49°29' E 000°08'0 0.0
2017-Oct-31 06:56N 49°29' E 000°08'0 0.0
2017-Oct-31 06:26N 49°29' E 000°08'0 0.0
2017-Oct-31 05:56N 49°29' E 000°08'0 0.0
2017-Oct-31 05:29N 49°29' E 000°08'0 0.0
2017-Oct-31 04:59N 49°29' E 000°08'0 0.0
2017-Oct-31 04:26N 49°29' E 000°08'0 0.0
2017-Oct-31 03:59N 49°29' E 000°08'0 0.0
2017-Oct-31 03:26N 49°29' E 000°08'0 0.0
2017-Oct-31 02:59N 49°29' E 000°08'0 0.0
2017-Oct-31 02:29N 49°29' E 000°08'0 0.0
2017-Oct-31 01:59N 49°29' E 000°08'0 0.0
2017-Oct-31 01:26N 49°29' E 000°08'0 0.0
2017-Oct-31 00:59N 49°29' E 000°08'0 0.0
2017-Oct-31 00:26N 49°29' E 000°08'0 0.0
2017-Oct-30 23:59N 49°29' E 000°08'0 0.0
2017-Oct-30 23:26N 49°29' E 000°08'0 0.0
2017-Oct-30 22:56N 49°29' E 000°08'0 0.0
2017-Oct-30 22:29N 49°29' E 000°08'0 0.0
2017-Oct-30 21:56N 49°29' E 000°08'0 0.0
2017-Oct-30 21:26N 49°29' E 000°08'0 0.0
2017-Oct-30 20:59N 49°29' E 000°08'0 0.0
2017-Oct-30 20:26N 49°29' E 000°08'0 0.0
2017-Oct-30 19:56N 49°29' E 000°08'0 0.0
2017-Oct-30 19:26N 49°29' E 000°08'0 0.0
2017-Oct-30 18:56N 49°29' E 000°08'0 0.0
2017-Oct-30 16:57N 49°29' E 000°08'0 0.0
2017-Oct-30 16:30N 49°29' E 000°08'0 0.0
2017-Oct-30 15:57N 49°29' E 000°08'0 0.0
2017-Oct-30 15:30N 49°29' E 000°08'0 0.0
2017-Oct-30 15:00N 49°29' E 000°08'0 0.0
2017-Oct-30 14:27N 49°29' E 000°08'0 0.0
2017-Oct-30 13:30N 49°29' E 000°08'0 0.0
2017-Oct-30 13:00N 49°29' E 000°08'0 0.0
2017-Oct-30 12:30N 49°29' E 000°08'0 0.0
2017-Oct-30 12:00N 49°29' E 000°08'0 0.0
2017-Oct-30 11:30N 49°29' E 000°08'0 0.0
2017-Oct-30 10:57N 49°29' E 000°08'0 0.0
2017-Oct-29 17:16N 49°29' E 000°08'0 0.0
2017-Oct-29 16:58N 49°29' E 000°08'0 0.0
2017-Oct-29 16:28N 49°29' E 000°08'0 0.0
2017-Oct-29 15:58N 49°29' E 000°08'  
2017-Oct-27 11:34N 49°29' E 000°08'0 0.0
2017-Oct-27 11:28N 49°29' E 000°08'0 0.7
2017-Oct-27 11:01N 49°29' E 000°07'0 0.8
2017-Oct-27 10:28N 49°29' E 000°07'0 1.0
2017-Oct-27 10:00N 49°29' E 000°06'2 4.6
2017-Oct-27 09:30N 49°29' E 000°03'2 4.8
2017-Oct-27 09:00N 49°28' W 000°00'3 6.2
2017-Oct-27 08:30N 49°27' W 000°05'3 5.5
2017-Oct-27 08:00N 49°26' W 000°09'1 2.4
2017-Oct-27 07:30N 49°26' W 000°07'1 1.5
2017-Oct-27 06:59N 49°26' W 000°07'3 5.4
2017-Oct-27 06:30N 49°24' W 000°09'3 6.4
2017-Oct-27 06:00N 49°21' W 000°12'3 5.5
2017-Oct-27 05:29N 49°19' W 000°15'2 3.9
2017-Oct-27 05:00N 49°17' W 000°15'  

Dump ship's entire track history